sensor_id;sensor_type;location;lat;lon;timestamp;P1;durP1;ratioP1;P2;durP2;ratioP2
12966;SDS011;6548;49.996;8.238;2022-12-01T00:00:28;26.10;;;13.10;;
12966;SDS011;6548;49.996;8.238;2022-12-01T00:02:53;24.08;;;13.00;;
12966;SDS011;6548;49.996;8.238;2022-12-01T00:05:19;25.42;;;14.10;;
12966;SDS011;6548;49.996;8.238;2022-12-01T00:07:46;28.92;;;15.02;;
12966;SDS011;6548;49.996;8.238;2022-12-01T00:10:13;30.83;;;14.50;;
12966;SDS011;6548;49.996;8.238;2022-12-01T00:12:54;27.65;;;14.38;;
12966;SDS011;6548;49.996;8.238;2022-12-01T00:15:22;26.50;;;13.30;;
12966;SDS011;6548;49.996;8.238;2022-12-01T00:17:50;26.27;;;13.38;;
12966;SDS011;6548;49.996;8.238;2022-12-01T00:20:15;27.95;;;13.38;;
12966;SDS011;6548;49.996;8.238;2022-12-01T00:22:42;29.75;;;14.43;;
12966;SDS011;6548;49.996;8.238;2022-12-01T00:25:09;32.10;;;13.45;;
12966;SDS011;6548;49.996;8.238;2022-12-01T00:27:35;30.63;;;15.05;;
12966;SDS011;6548;49.996;8.238;2022-12-01T00:30:01;19.90;;;11.88;;
12966;SDS011;6548;49.996;8.238;2022-12-01T00:32:28;28.85;;;13.75;;
12966;SDS011;6548;49.996;8.238;2022-12-01T00:34:54;26.73;;;13.23;;
12966;SDS011;6548;49.996;8.238;2022-12-01T00:37:20;26.80;;;14.00;;
12966;SDS011;6548;49.996;8.238;2022-12-01T00:39:45;27.70;;;12.13;;
12966;SDS011;6548;49.996;8.238;2022-12-01T00:42:11;25.73;;;13.02;;
12966;SDS011;6548;49.996;8.238;2022-12-01T00:44:37;27.58;;;12.32;;
12966;SDS011;6548;49.996;8.238;2022-12-01T00:47:02;26.98;;;12.55;;
12966;SDS011;6548;49.996;8.238;2022-12-01T00:49:28;26.98;;;13.15;;
12966;SDS011;6548;49.996;8.238;2022-12-01T00:51:53;28.48;;;13.80;;
12966;SDS011;6548;49.996;8.238;2022-12-01T00:54:19;26.45;;;13.85;;
12966;SDS011;6548;49.996;8.238;2022-12-01T00:56:45;25.77;;;13.25;;
12966;SDS011;6548;49.996;8.238;2022-12-01T00:59:10;28.65;;;12.95;;
12966;SDS011;6548;49.996;8.238;2022-12-01T01:01:36;28.67;;;13.98;;
12966;SDS011;6548;49.996;8.238;2022-12-01T01:04:01;27.40;;;14.35;;
12966;SDS011;6548;49.996;8.238;2022-12-01T01:06:27;28.77;;;14.15;;
12966;SDS011;6548;49.996;8.238;2022-12-01T01:08:53;29.80;;;14.07;;
12966;SDS011;6548;49.996;8.238;2022-12-01T01:11:19;30.98;;;15.07;;
12966;SDS011;6548;49.996;8.238;2022-12-01T01:13:44;31.38;;;14.25;;
12966;SDS011;6548;49.996;8.238;2022-12-01T01:16:13;29.60;;;13.45;;
12966;SDS011;6548;49.996;8.238;2022-12-01T01:18:43;27.92;;;12.80;;
12966;SDS011;6548;49.996;8.238;2022-12-01T01:21:10;26.70;;;12.68;;
12966;SDS011;6548;49.996;8.238;2022-12-01T01:23:38;33.00;;;12.32;;
12966;SDS011;6548;49.996;8.238;2022-12-01T01:26:05;21.85;;;11.07;;
12966;SDS011;6548;49.996;8.238;2022-12-01T01:28:39;22.90;;;11.00;;
12966;SDS011;6548;49.996;8.238;2022-12-01T01:31:07;23.70;;;10.55;;
12966;SDS011;6548;49.996;8.238;2022-12-01T01:33:34;25.92;;;12.00;;
12966;SDS011;6548;49.996;8.238;2022-12-01T01:36:00;27.50;;;12.27;;
12966;SDS011;6548;49.996;8.238;2022-12-01T01:38:27;28.70;;;12.00;;
12966;SDS011;6548;49.996;8.238;2022-12-01T01:40:53;28.10;;;12.05;;
12966;SDS011;6548;49.996;8.238;2022-12-01T01:46:23;22.80;;;11.32;;
12966;SDS011;6548;49.996;8.238;2022-12-01T01:48:55;28.30;;;12.05;;
12966;SDS011;6548;49.996;8.238;2022-12-01T01:51:41;31.67;;;11.77;;
12966;SDS011;6548;49.996;8.238;2022-12-01T01:54:17;29.23;;;13.60;;
12966;SDS011;6548;49.996;8.238;2022-12-01T01:56:49;23.95;;;11.93;;
12966;SDS011;6548;49.996;8.238;2022-12-01T01:59:20;29.00;;;13.63;;
12966;SDS011;6548;49.996;8.238;2022-12-01T02:01:51;29.60;;;12.98;;
12966;SDS011;6548;49.996;8.238;2022-12-01T02:04:24;30.33;;;13.85;;
12966;SDS011;6548;49.996;8.238;2022-12-01T02:06:50;30.75;;;13.13;;
12966;SDS011;6548;49.996;8.238;2022-12-01T02:09:16;27.77;;;14.32;;
12966;SDS011;6548;49.996;8.238;2022-12-01T02:11:57;35.00;;;14.38;;
12966;SDS011;6548;49.996;8.238;2022-12-01T02:25:17;32.80;;;14.40;;
12966;SDS011;6548;49.996;8.238;2022-12-01T02:30:52;34.70;;;14.02;;
12966;SDS011;6548;49.996;8.238;2022-12-01T02:33:35;29.85;;;15.05;;
12966;SDS011;6548;49.996;8.238;2022-12-01T02:36:11;32.72;;;14.63;;
12966;SDS011;6548;49.996;8.238;2022-12-01T02:38:40;31.25;;;12.55;;
12966;SDS011;6548;49.996;8.238;2022-12-01T02:41:39;35.38;;;16.00;;
12966;SDS011;6548;49.996;8.238;2022-12-01T02:44:24;33.28;;;15.00;;
12966;SDS011;6548;49.996;8.238;2022-12-01T02:47:01;29.10;;;14.15;;
12966;SDS011;6548;49.996;8.238;2022-12-01T02:49:35;35.75;;;14.00;;
12966;SDS011;6548;49.996;8.238;2022-12-01T02:52:09;33.42;;;15.50;;
12966;SDS011;6548;49.996;8.238;2022-12-01T02:54:37;36.67;;;16.52;;
12966;SDS011;6548;49.996;8.238;2022-12-01T02:57:03;31.60;;;14.75;;
12966;SDS011;6548;49.996;8.238;2022-12-01T02:59:29;34.63;;;15.60;;
12966;SDS011;6548;49.996;8.238;2022-12-01T03:01:59;34.67;;;14.40;;
12966;SDS011;6548;49.996;8.238;2022-12-01T03:07:38;32.83;;;14.68;;
12966;SDS011;6548;49.996;8.238;2022-12-01T03:10:28;34.80;;;14.77;;
12966;SDS011;6548;49.996;8.238;2022-12-01T03:15:47;34.03;;;15.02;;
12966;SDS011;6548;49.996;8.238;2022-12-01T03:18:31;28.80;;;14.13;;
12966;SDS011;6548;49.996;8.238;2022-12-01T03:23:27;36.92;;;14.90;;
12966;SDS011;6548;49.996;8.238;2022-12-01T03:25:57;38.35;;;16.95;;
12966;SDS011;6548;49.996;8.238;2022-12-01T03:28:30;37.70;;;15.88;;
12966;SDS011;6548;49.996;8.238;2022-12-01T03:31:00;41.22;;;16.33;;
12966;SDS011;6548;49.996;8.238;2022-12-01T03:33:32;42.30;;;16.98;;
12966;SDS011;6548;49.996;8.238;2022-12-01T03:38:38;35.42;;;16.45;;
12966;SDS011;6548;49.996;8.238;2022-12-01T03:41:12;38.45;;;14.95;;
12966;SDS011;6548;49.996;8.238;2022-12-01T03:43:43;37.75;;;15.68;;
12966;SDS011;6548;49.996;8.238;2022-12-01T03:46:28;38.13;;;16.50;;
12966;SDS011;6548;49.996;8.238;2022-12-01T03:49:06;35.60;;;14.45;;
12966;SDS011;6548;49.996;8.238;2022-12-01T03:54:14;37.72;;;16.08;;
12966;SDS011;6548;49.996;8.238;2022-12-01T03:56:51;36.58;;;15.88;;
12966;SDS011;6548;49.996;8.238;2022-12-01T03:59:21;37.40;;;16.38;;
12966;SDS011;6548;49.996;8.238;2022-12-01T04:01:49;41.95;;;16.15;;
12966;SDS011;6548;49.996;8.238;2022-12-01T04:04:15;36.35;;;15.68;;
12966;SDS011;6548;49.996;8.238;2022-12-01T04:06:42;35.75;;;14.68;;
12966;SDS011;6548;49.996;8.238;2022-12-01T04:09:11;34.42;;;15.75;;
12966;SDS011;6548;49.996;8.238;2022-12-01T04:11:36;37.63;;;15.40;;
12966;SDS011;6548;49.996;8.238;2022-12-01T11:21:31;24.48;;;11.75;;
12966;SDS011;6548;49.996;8.238;2022-12-01T11:23:56;25.27;;;12.30;;
12966;SDS011;6548;49.996;8.238;2022-12-01T11:31:45;25.45;;;12.25;;
12966;SDS011;6548;49.996;8.238;2022-12-01T11:34:15;23.50;;;12.65;;
12966;SDS011;6548;49.996;8.238;2022-12-01T11:36:50;32.50;;;14.73;;
12966;SDS011;6548;49.996;8.238;2022-12-01T11:42:30;25.90;;;13.65;;
12966;SDS011;6548;49.996;8.238;2022-12-01T11:47:29;26.45;;;13.38;;
12966;SDS011;6548;49.996;8.238;2022-12-01T11:49:59;27.98;;;12.90;;
12966;SDS011;6548;49.996;8.238;2022-12-01T11:52:30;28.00;;;12.48;;
12966;SDS011;6548;49.996;8.238;2022-12-01T11:57:41;26.42;;;13.00;;
12966;SDS011;6548;49.996;8.238;2022-12-01T12:00:44;26.60;;;13.30;;
12966;SDS011;6548;49.996;8.238;2022-12-01T12:03:22;26.25;;;12.18;;
12966;SDS011;6548;49.996;8.238;2022-12-01T12:12:02;24.65;;;12.73;;
12966;SDS011;6548;49.996;8.238;2022-12-01T12:14:47;24.92;;;13.15;;
12966;SDS011;6548;49.996;8.238;2022-12-01T12:17:43;23.98;;;11.38;;
12966;SDS011;6548;49.996;8.238;2022-12-01T12:20:28;30.75;;;12.85;;
12966;SDS011;6548;49.996;8.238;2022-12-01T12:29:18;25.10;;;12.18;;
12966;SDS011;6548;49.996;8.238;2022-12-01T12:31:32;28.00;;;12.85;;
12966;SDS011;6548;49.996;8.238;2022-12-01T12:37:07;27.05;;;12.30;;
12966;SDS011;6548;49.996;8.238;2022-12-01T12:42:37;29.15;;;13.05;;
12966;SDS011;6548;49.996;8.238;2022-12-01T12:45:14;26.92;;;13.93;;
12966;SDS011;6548;49.996;8.238;2022-12-01T12:47:48;29.27;;;12.57;;
12966;SDS011;6548;49.996;8.238;2022-12-01T12:50:26;22.13;;;11.70;;
12966;SDS011;6548;49.996;8.238;2022-12-01T12:53:00;27.80;;;13.23;;
12966;SDS011;6548;49.996;8.238;2022-12-01T13:00:49;28.55;;;12.57;;
12966;SDS011;6548;49.996;8.238;2022-12-01T13:03:42;24.00;;;12.43;;
12966;SDS011;6548;49.996;8.238;2022-12-01T13:06:17;24.17;;;11.93;;
12966;SDS011;6548;49.996;8.238;2022-12-01T13:09:12;28.58;;;12.88;;
12966;SDS011;6548;49.996;8.238;2022-12-01T13:11:46;25.52;;;11.68;;
12966;SDS011;6548;49.996;8.238;2022-12-01T13:14:29;28.13;;;13.18;;
12966;SDS011;6548;49.996;8.238;2022-12-01T13:17:49;28.25;;;13.10;;
12966;SDS011;6548;49.996;8.238;2022-12-01T13:20:00;29.05;;;12.30;;
12966;SDS011;6548;49.996;8.238;2022-12-01T13:22:31;27.05;;;12.27;;
12966;SDS011;6548;49.996;8.238;2022-12-01T13:24:59;28.75;;;12.80;;
12966;SDS011;6548;49.996;8.238;2022-12-01T13:27:26;26.33;;;12.95;;
12966;SDS011;6548;49.996;8.238;2022-12-01T13:29:56;28.15;;;12.07;;
12966;SDS011;6548;49.996;8.238;2022-12-01T13:32:33;26.67;;;12.63;;
12966;SDS011;6548;49.996;8.238;2022-12-01T13:35:02;26.75;;;13.55;;
12966;SDS011;6548;49.996;8.238;2022-12-01T13:37:50;23.95;;;12.57;;
12966;SDS011;6548;49.996;8.238;2022-12-01T13:40:21;24.63;;;11.93;;
12966;SDS011;6548;49.996;8.238;2022-12-01T13:42:53;25.75;;;11.88;;
12966;SDS011;6548;49.996;8.238;2022-12-01T13:47:59;26.48;;;12.68;;
12966;SDS011;6548;49.996;8.238;2022-12-01T13:53:13;21.98;;;11.25;;
12966;SDS011;6548;49.996;8.238;2022-12-01T14:06:40;23.95;;;11.40;;
12966;SDS011;6548;49.996;8.238;2022-12-01T14:11:56;21.17;;;11.18;;
12966;SDS011;6548;49.996;8.238;2022-12-01T14:14:26;54.92;;;22.65;;
12966;SDS011;6548;49.996;8.238;2022-12-01T14:16:58;29.67;;;11.60;;
12966;SDS011;6548;49.996;8.238;2022-12-01T14:19:32;30.85;;;12.77;;
12966;SDS011;6548;49.996;8.238;2022-12-01T14:21:58;24.35;;;12.32;;
12966;SDS011;6548;49.996;8.238;2022-12-01T14:24:28;24.13;;;11.57;;
12966;SDS011;6548;49.996;8.238;2022-12-01T14:27:00;25.90;;;12.18;;
12966;SDS011;6548;49.996;8.238;2022-12-01T14:34:27;22.13;;;11.32;;
12966;SDS011;6548;49.996;8.238;2022-12-01T14:39:38;21.33;;;10.93;;
12966;SDS011;6548;49.996;8.238;2022-12-01T14:47:07;22.20;;;10.77;;
12966;SDS011;6548;49.996;8.238;2022-12-01T14:52:31;23.08;;;11.45;;
12966;SDS011;6548;49.996;8.238;2022-12-01T14:55:02;19.33;;;10.88;;
12966;SDS011;6548;49.996;8.238;2022-12-01T14:57:38;23.08;;;11.23;;
12966;SDS011;6548;49.996;8.238;2022-12-01T15:00:11;22.48;;;12.10;;
12966;SDS011;6548;49.996;8.238;2022-12-01T15:02:51;22.70;;;11.30;;
12966;SDS011;6548;49.996;8.238;2022-12-01T15:05:20;20.35;;;10.52;;
12966;SDS011;6548;49.996;8.238;2022-12-01T15:07:52;20.90;;;10.38;;
12966;SDS011;6548;49.996;8.238;2022-12-01T15:10:20;23.35;;;11.80;;
12966;SDS011;6548;49.996;8.238;2022-12-01T15:12:46;22.58;;;10.48;;
12966;SDS011;6548;49.996;8.238;2022-12-01T15:15:17;24.15;;;10.70;;
12966;SDS011;6548;49.996;8.238;2022-12-01T15:17:44;26.40;;;12.05;;
12966;SDS011;6548;49.996;8.238;2022-12-01T15:20:25;26.02;;;11.20;;
12966;SDS011;6548;49.996;8.238;2022-12-01T15:22:53;24.17;;;11.93;;
12966;SDS011;6548;49.996;8.238;2022-12-01T15:25:19;22.60;;;12.20;;
12966;SDS011;6548;49.996;8.238;2022-12-01T15:27:45;21.38;;;10.75;;
12966;SDS011;6548;49.996;8.238;2022-12-01T15:30:25;26.60;;;11.70;;
12966;SDS011;6548;49.996;8.238;2022-12-01T15:32:50;27.38;;;11.90;;
12966;SDS011;6548;49.996;8.238;2022-12-01T15:35:18;26.80;;;11.68;;
12966;SDS011;6548;49.996;8.238;2022-12-01T15:37:46;29.38;;;12.45;;
12966;SDS011;6548;49.996;8.238;2022-12-01T15:40:17;24.67;;;11.98;;
12966;SDS011;6548;49.996;8.238;2022-12-01T15:42:43;22.85;;;11.90;;
12966;SDS011;6548;49.996;8.238;2022-12-01T15:45:23;25.10;;;12.52;;
12966;SDS011;6548;49.996;8.238;2022-12-01T15:47:52;30.10;;;12.63;;
12966;SDS011;6548;49.996;8.238;2022-12-01T15:50:28;25.95;;;12.85;;
12966;SDS011;6548;49.996;8.238;2022-12-01T15:53:26;25.27;;;13.63;;
12966;SDS011;6548;49.996;8.238;2022-12-01T15:55:53;27.42;;;12.68;;
12966;SDS011;6548;49.996;8.238;2022-12-01T15:58:21;25.63;;;12.15;;
12966;SDS011;6548;49.996;8.238;2022-12-01T16:00:59;25.83;;;12.20;;
12966;SDS011;6548;49.996;8.238;2022-12-01T16:03:57;24.08;;;12.63;;
12966;SDS011;6548;49.996;8.238;2022-12-01T16:06:26;24.38;;;12.05;;
12966;SDS011;6548;49.996;8.238;2022-12-01T16:09:40;28.60;;;12.75;;
12966;SDS011;6548;49.996;8.238;2022-12-01T16:14:31;24.20;;;11.43;;
12966;SDS011;6548;49.996;8.238;2022-12-01T16:16:59;24.67;;;12.35;;
12966;SDS011;6548;49.996;8.238;2022-12-01T16:19:29;26.13;;;12.35;;
12966;SDS011;6548;49.996;8.238;2022-12-01T16:24:41;21.48;;;10.35;;
12966;SDS011;6548;49.996;8.238;2022-12-01T16:29:55;22.13;;;10.02;;
12966;SDS011;6548;49.996;8.238;2022-12-01T16:32:31;23.10;;;11.80;;
12966;SDS011;6548;49.996;8.238;2022-12-01T16:35:05;24.35;;;11.23;;
12966;SDS011;6548;49.996;8.238;2022-12-01T16:37:45;25.52;;;12.98;;
12966;SDS011;6548;49.996;8.238;2022-12-01T16:40:11;26.27;;;13.65;;
12966;SDS011;6548;49.996;8.238;2022-12-01T16:42:37;22.40;;;12.18;;
12966;SDS011;6548;49.996;8.238;2022-12-01T16:45:03;24.75;;;11.40;;
12966;SDS011;6548;49.996;8.238;2022-12-01T16:47:30;28.52;;;12.90;;
12966;SDS011;6548;49.996;8.238;2022-12-01T16:49:56;21.88;;;11.82;;
12966;SDS011;6548;49.996;8.238;2022-12-01T16:52:21;21.35;;;10.80;;
12966;SDS011;6548;49.996;8.238;2022-12-01T16:54:47;24.88;;;11.65;;
12966;SDS011;6548;49.996;8.238;2022-12-01T16:57:13;24.30;;;12.13;;
12966;SDS011;6548;49.996;8.238;2022-12-01T16:59:41;21.00;;;10.85;;
12966;SDS011;6548;49.996;8.238;2022-12-01T17:02:08;22.73;;;11.48;;
12966;SDS011;6548;49.996;8.238;2022-12-01T17:04:34;24.33;;;11.57;;
12966;SDS011;6548;49.996;8.238;2022-12-01T17:07:00;22.50;;;10.98;;
12966;SDS011;6548;49.996;8.238;2022-12-01T17:09:26;26.92;;;11.88;;
12966;SDS011;6548;49.996;8.238;2022-12-01T17:11:52;24.25;;;11.73;;
12966;SDS011;6548;49.996;8.238;2022-12-01T17:14:20;23.88;;;11.70;;
12966;SDS011;6548;49.996;8.238;2022-12-01T17:16:46;24.35;;;11.63;;
12966;SDS011;6548;49.996;8.238;2022-12-01T17:19:12;23.55;;;11.77;;
12966;SDS011;6548;49.996;8.238;2022-12-01T17:21:38;26.73;;;12.40;;
12966;SDS011;6548;49.996;8.238;2022-12-01T17:24:03;26.98;;;12.90;;
12966;SDS011;6548;49.996;8.238;2022-12-01T17:26:29;23.98;;;11.38;;
12966;SDS011;6548;49.996;8.238;2022-12-01T17:28:55;25.63;;;11.93;;
12966;SDS011;6548;49.996;8.238;2022-12-01T17:31:21;25.95;;;12.07;;
12966;SDS011;6548;49.996;8.238;2022-12-01T17:33:46;23.98;;;11.40;;
12966;SDS011;6548;49.996;8.238;2022-12-01T17:36:13;24.42;;;12.60;;
12966;SDS011;6548;49.996;8.238;2022-12-01T17:38:39;28.85;;;12.25;;
12966;SDS011;6548;49.996;8.238;2022-12-01T17:41:07;28.25;;;12.32;;
12966;SDS011;6548;49.996;8.238;2022-12-01T17:43:35;26.33;;;11.93;;
12966;SDS011;6548;49.996;8.238;2022-12-01T17:46:02;27.58;;;13.07;;
12966;SDS011;6548;49.996;8.238;2022-12-01T17:48:30;27.48;;;12.30;;
12966;SDS011;6548;49.996;8.238;2022-12-01T17:51:03;26.48;;;13.75;;
12966;SDS011;6548;49.996;8.238;2022-12-01T17:53:29;29.15;;;12.57;;
12966;SDS011;6548;49.996;8.238;2022-12-01T17:55:55;25.40;;;11.38;;
12966;SDS011;6548;49.996;8.238;2022-12-01T17:58:20;23.02;;;11.82;;
12966;SDS011;6548;49.996;8.238;2022-12-01T18:00:47;25.17;;;11.55;;
12966;SDS011;6548;49.996;8.238;2022-12-01T18:03:14;29.67;;;13.25;;
12966;SDS011;6548;49.996;8.238;2022-12-01T18:05:40;26.17;;;11.85;;
12966;SDS011;6548;49.996;8.238;2022-12-01T18:08:05;30.13;;;13.00;;
12966;SDS011;6548;49.996;8.238;2022-12-01T18:10:31;29.60;;;12.10;;
12966;SDS011;6548;49.996;8.238;2022-12-01T18:12:56;29.42;;;12.20;;
12966;SDS011;6548;49.996;8.238;2022-12-01T18:15:22;27.58;;;12.63;;
12966;SDS011;6548;49.996;8.238;2022-12-01T18:17:49;26.80;;;11.75;;
12966;SDS011;6548;49.996;8.238;2022-12-01T18:20:16;27.23;;;12.52;;
12966;SDS011;6548;49.996;8.238;2022-12-01T18:22:42;28.83;;;14.57;;
12966;SDS011;6548;49.996;8.238;2022-12-01T18:25:08;25.92;;;12.07;;
12966;SDS011;6548;49.996;8.238;2022-12-01T18:27:34;31.30;;;14.88;;
12966;SDS011;6548;49.996;8.238;2022-12-01T18:29:59;28.80;;;13.70;;
12966;SDS011;6548;49.996;8.238;2022-12-01T18:32:25;27.67;;;13.05;;
12966;SDS011;6548;49.996;8.238;2022-12-01T18:34:50;30.45;;;13.20;;
12966;SDS011;6548;49.996;8.238;2022-12-01T18:37:16;30.08;;;13.30;;
12966;SDS011;6548;49.996;8.238;2022-12-01T18:39:41;27.70;;;13.07;;
12966;SDS011;6548;49.996;8.238;2022-12-01T18:42:07;27.55;;;13.60;;
12966;SDS011;6548;49.996;8.238;2022-12-01T18:44:32;26.77;;;13.00;;
12966;SDS011;6548;49.996;8.238;2022-12-01T18:46:58;28.10;;;12.63;;
12966;SDS011;6548;49.996;8.238;2022-12-01T18:49:26;29.58;;;13.15;;
12966;SDS011;6548;49.996;8.238;2022-12-01T18:51:52;25.80;;;12.35;;
12966;SDS011;6548;49.996;8.238;2022-12-01T18:54:17;29.63;;;12.60;;
12966;SDS011;6548;49.996;8.238;2022-12-01T18:56:43;30.20;;;13.27;;
12966;SDS011;6548;49.996;8.238;2022-12-01T18:59:10;30.55;;;13.05;;
12966;SDS011;6548;49.996;8.238;2022-12-01T19:01:37;27.75;;;13.50;;
12966;SDS011;6548;49.996;8.238;2022-12-01T19:04:06;31.65;;;14.73;;
12966;SDS011;6548;49.996;8.238;2022-12-01T19:06:33;29.90;;;15.45;;
12966;SDS011;6548;49.996;8.238;2022-12-01T19:09:01;31.85;;;14.10;;
12966;SDS011;6548;49.996;8.238;2022-12-01T19:11:29;29.83;;;12.75;;
12966;SDS011;6548;49.996;8.238;2022-12-01T19:13:55;33.40;;;13.23;;
12966;SDS011;6548;49.996;8.238;2022-12-01T19:16:22;35.70;;;16.17;;
12966;SDS011;6548;49.996;8.238;2022-12-01T19:18:48;38.05;;;16.10;;
12966;SDS011;6548;49.996;8.238;2022-12-01T19:21:16;32.30;;;14.18;;
12966;SDS011;6548;49.996;8.238;2022-12-01T19:23:43;28.85;;;13.25;;
12966;SDS011;6548;49.996;8.238;2022-12-01T19:26:10;30.50;;;13.65;;
12966;SDS011;6548;49.996;8.238;2022-12-01T19:28:41;34.50;;;14.00;;
12966;SDS011;6548;49.996;8.238;2022-12-01T19:31:10;29.50;;;13.45;;
12966;SDS011;6548;49.996;8.238;2022-12-01T19:33:37;29.88;;;14.10;;
12966;SDS011;6548;49.996;8.238;2022-12-01T19:36:07;30.20;;;13.93;;
12966;SDS011;6548;49.996;8.238;2022-12-01T19:38:38;25.35;;;12.93;;
12966;SDS011;6548;49.996;8.238;2022-12-01T19:41:04;34.30;;;14.70;;
12966;SDS011;6548;49.996;8.238;2022-12-01T19:43:32;31.02;;;14.57;;
12966;SDS011;6548;49.996;8.238;2022-12-01T19:46:02;31.52;;;14.20;;
12966;SDS011;6548;49.996;8.238;2022-12-01T19:48:36;29.25;;;15.55;;
12966;SDS011;6548;49.996;8.238;2022-12-01T19:51:02;33.78;;;16.27;;
12966;SDS011;6548;49.996;8.238;2022-12-01T19:53:28;29.88;;;16.35;;
12966;SDS011;6548;49.996;8.238;2022-12-01T19:55:58;31.98;;;15.27;;
12966;SDS011;6548;49.996;8.238;2022-12-01T19:58:27;34.40;;;15.23;;
12966;SDS011;6548;49.996;8.238;2022-12-01T20:00:52;31.80;;;14.20;;
12966;SDS011;6548;49.996;8.238;2022-12-01T20:03:18;32.30;;;14.45;;
12966;SDS011;6548;49.996;8.238;2022-12-01T20:05:44;35.83;;;15.38;;
12966;SDS011;6548;49.996;8.238;2022-12-01T20:08:09;30.20;;;14.35;;
12966;SDS011;6548;49.996;8.238;2022-12-01T20:10:44;30.13;;;13.95;;
12966;SDS011;6548;49.996;8.238;2022-12-01T20:13:11;31.15;;;14.05;;
12966;SDS011;6548;49.996;8.238;2022-12-01T20:15:37;33.25;;;14.63;;
12966;SDS011;6548;49.996;8.238;2022-12-01T20:18:02;29.88;;;14.30;;
12966;SDS011;6548;49.996;8.238;2022-12-01T20:20:28;36.67;;;15.63;;
12966;SDS011;6548;49.996;8.238;2022-12-01T20:22:53;28.20;;;14.13;;
12966;SDS011;6548;49.996;8.238;2022-12-01T20:25:19;29.83;;;14.65;;
12966;SDS011;6548;49.996;8.238;2022-12-01T20:27:44;36.17;;;15.50;;
12966;SDS011;6548;49.996;8.238;2022-12-01T20:30:10;28.75;;;13.25;;
12966;SDS011;6548;49.996;8.238;2022-12-01T20:32:36;37.03;;;14.77;;
12966;SDS011;6548;49.996;8.238;2022-12-01T20:35:02;34.35;;;14.52;;
12966;SDS011;6548;49.996;8.238;2022-12-01T20:37:28;34.15;;;14.93;;
12966;SDS011;6548;49.996;8.238;2022-12-01T20:39:54;33.40;;;14.50;;
12966;SDS011;6548;49.996;8.238;2022-12-01T20:42:20;36.08;;;14.90;;
12966;SDS011;6548;49.996;8.238;2022-12-01T20:44:48;34.58;;;15.18;;
12966;SDS011;6548;49.996;8.238;2022-12-01T20:47:13;31.98;;;14.45;;
12966;SDS011;6548;49.996;8.238;2022-12-01T20:49:42;31.85;;;14.35;;
12966;SDS011;6548;49.996;8.238;2022-12-01T20:52:08;31.25;;;15.18;;
12966;SDS011;6548;49.996;8.238;2022-12-01T20:54:34;31.13;;;15.85;;
12966;SDS011;6548;49.996;8.238;2022-12-01T20:57:00;39.42;;;17.05;;
12966;SDS011;6548;49.996;8.238;2022-12-01T20:59:25;30.75;;;15.82;;
12966;SDS011;6548;49.996;8.238;2022-12-01T21:01:51;35.28;;;16.85;;
12966;SDS011;6548;49.996;8.238;2022-12-01T21:04:17;33.55;;;15.20;;
12966;SDS011;6548;49.996;8.238;2022-12-01T21:06:45;29.40;;;14.85;;
12966;SDS011;6548;49.996;8.238;2022-12-01T21:09:11;35.75;;;14.95;;
12966;SDS011;6548;49.996;8.238;2022-12-01T21:11:42;34.00;;;15.10;;
12966;SDS011;6548;49.996;8.238;2022-12-01T21:14:46;33.15;;;16.05;;
12966;SDS011;6548;49.996;8.238;2022-12-01T21:20:04;33.28;;;15.88;;
12966;SDS011;6548;49.996;8.238;2022-12-01T21:22:53;35.50;;;14.77;;
12966;SDS011;6548;49.996;8.238;2022-12-01T21:25:25;31.27;;;14.45;;
12966;SDS011;6548;49.996;8.238;2022-12-01T21:27:50;31.95;;;14.38;;
12966;SDS011;6548;49.996;8.238;2022-12-01T21:30:22;32.10;;;14.73;;
12966;SDS011;6548;49.996;8.238;2022-12-01T21:32:53;32.03;;;14.10;;
12966;SDS011;6548;49.996;8.238;2022-12-01T21:35:24;33.13;;;13.88;;
12966;SDS011;6548;49.996;8.238;2022-12-01T21:37:52;39.85;;;15.00;;
12966;SDS011;6548;49.996;8.238;2022-12-01T21:40:23;32.80;;;14.18;;
12966;SDS011;6548;49.996;8.238;2022-12-01T21:42:50;30.80;;;15.07;;
12966;SDS011;6548;49.996;8.238;2022-12-01T21:45:26;36.35;;;14.05;;
12966;SDS011;6548;49.996;8.238;2022-12-01T21:47:59;33.60;;;15.73;;
12966;SDS011;6548;49.996;8.238;2022-12-01T21:50:30;33.38;;;15.35;;
12966;SDS011;6548;49.996;8.238;2022-12-01T21:52:56;31.50;;;15.35;;
12966;SDS011;6548;49.996;8.238;2022-12-01T21:57:49;33.35;;;14.18;;
12966;SDS011;6548;49.996;8.238;2022-12-01T22:00:32;32.15;;;14.98;;
12966;SDS011;6548;49.996;8.238;2022-12-01T22:08:49;36.25;;;16.17;;
12966;SDS011;6548;49.996;8.238;2022-12-01T22:11:17;36.95;;;16.15;;
12966;SDS011;6548;49.996;8.238;2022-12-01T22:16:15;35.28;;;14.88;;
12966;SDS011;6548;49.996;8.238;2022-12-01T22:18:53;32.53;;;15.27;;
12966;SDS011;6548;49.996;8.238;2022-12-01T22:26:49;30.40;;;13.95;;
12966;SDS011;6548;49.996;8.238;2022-12-01T22:32:05;29.27;;;14.30;;
12966;SDS011;6548;49.996;8.238;2022-12-01T22:34:38;34.67;;;15.20;;
12966;SDS011;6548;49.996;8.238;2022-12-01T22:37:39;34.08;;;14.30;;
12966;SDS011;6548;49.996;8.238;2022-12-01T22:40:28;35.45;;;16.30;;
12966;SDS011;6548;49.996;8.238;2022-12-01T22:48:42;36.70;;;13.90;;
12966;SDS011;6548;49.996;8.238;2022-12-01T22:53:44;37.15;;;15.43;;
12966;SDS011;6548;49.996;8.238;2022-12-01T22:58:53;38.00;;;15.35;;
12966;SDS011;6548;49.996;8.238;2022-12-01T23:01:27;38.92;;;17.33;;
12966;SDS011;6548;49.996;8.238;2022-12-01T23:04:11;33.58;;;14.80;;
12966;SDS011;6548;49.996;8.238;2022-12-01T23:06:47;35.58;;;14.27;;
12966;SDS011;6548;49.996;8.238;2022-12-01T23:09:20;39.83;;;15.82;;
12966;SDS011;6548;49.996;8.238;2022-12-01T23:11:55;33.83;;;15.80;;
12966;SDS011;6548;49.996;8.238;2022-12-01T23:14:24;34.55;;;14.50;;
12966;SDS011;6548;49.996;8.238;2022-12-01T23:17:04;34.30;;;16.02;;
